KBNO/BNO METAR and TAF weather

Enter ICAO airport designator
Station Type Date Time Source
KBNO METAR 2021/05/14 12:53 UTC NOAA

KBNO 141253Z AUTO 27004KT 10SM CLR 09/01 A3004 RMK AO2 SLP144 T00940011


Station Type Date Time Source
KBNO Decoded METAR 2021/05/14 12:53 UTC NOAA

BURNS MUNICIPAL AIRPORT, OR, United States (KBNO) 43-36N 118-57W 1264M
May 14, 2021 - 08:53 AM EDT / 2021.05.14 1253 UTC
Wind: from the W (270 degrees) at 5 MPH (4 KT):0
Visibility: 10 mile(s):0
Sky conditions: clear
Temperature: 48.9 F (9.4 C)
Dew Point: 34.0 F (1.1 C)
Relative Humidity: 56%
Pressure (altimeter): 30.04 in. Hg (1017 hPa)
ob: KBNO 141253Z AUTO 27004KT 10SM CLR 09/01 A3004 RMK AO2 SLP144 T00940011
cycle: 13

Station Type Date Time Source
KBNO TAF 2021/05/14 12:45 UTC NOAA

TAF KBNO 141140Z 1412/1512 VRB04KT P6SM BKN100
FM142000 05008KT P6SM VCSH BKN100
TEMPO 1420/1423 VRB15G30KT
FM150300 30005KT P6SM BKN100

Example: see airport list